sensor_id;sensor_type;location;lat;lon;timestamp;pressure;altitude;pressure_sealevel;temperature;humidity
80568;BME280;69922;45.656;25.586;2023-05-10T00:00:40;95721.16;;;5.85;72.30
80568;BME280;69922;45.656;25.586;2023-05-10T00:01:49;95718.45;;;5.82;72.39
80568;BME280;69922;45.656;25.586;2023-05-10T00:02:55;95715.84;;;5.80;72.42
80568;BME280;69922;45.656;25.586;2023-05-10T00:04:01;95712.81;;;5.79;72.51
80568;BME280;69922;45.656;25.586;2023-05-10T00:05:09;95711.95;;;5.79;72.57
80568;BME280;69922;45.656;25.586;2023-05-10T00:06:15;95710.92;;;5.79;72.58
80568;BME280;69922;45.656;25.586;2023-05-10T00:07:22;95702.62;;;5.79;72.86
80568;BME280;69922;45.656;25.586;2023-05-10T00:08:29;95701.33;;;5.78;72.57
80568;BME280;69922;45.656;25.586;2023-05-10T00:09:35;95701.84;;;5.76;72.72
80568;BME280;69922;45.656;25.586;2023-05-10T00:10:42;95700.21;;;5.75;72.61
80568;BME280;69922;45.656;25.586;2023-05-10T00:11:48;95700.12;;;5.74;72.73
80568;BME280;69922;45.656;25.586;2023-05-10T00:12:54;95699.68;;;5.72;72.64
80568;BME280;69922;45.656;25.586;2023-05-10T00:14:00;95702.79;;;5.71;72.51
80568;BME280;69922;45.656;25.586;2023-05-10T00:15:10;95701.16;;;5.70;72.69
80568;BME280;69922;45.656;25.586;2023-05-10T00:16:16;95701.27;;;5.68;72.90
80568;BME280;69922;45.656;25.586;2023-05-10T00:17:22;95699.63;;;5.66;72.84
80568;BME280;69922;45.656;25.586;2023-05-10T00:18:28;95702.40;;;5.64;72.86
80568;BME280;69922;45.656;25.586;2023-05-10T00:19:34;95703.04;;;5.63;72.91
80568;BME280;69922;45.656;25.586;2023-05-10T00:20:40;95701.91;;;5.62;72.93
80568;BME280;69922;45.656;25.586;2023-05-10T00:21:47;95701.91;;;5.62;72.96
80568;BME280;69922;45.656;25.586;2023-05-10T00:22:53;95701.70;;;5.62;72.93
80568;BME280;69922;45.656;25.586;2023-05-10T00:24:00;95699.20;;;5.62;73.03
80568;BME280;69922;45.656;25.586;2023-05-10T00:25:09;95699.46;;;5.62;73.11
80568;BME280;69922;45.656;25.586;2023-05-10T00:26:16;95700.45;;;5.60;73.07
80568;BME280;69922;45.656;25.586;2023-05-10T00:27:23;95698.95;;;5.60;73.21
80568;BME280;69922;45.656;25.586;2023-05-10T00:28:30;95695.98;;;5.58;73.30
80568;BME280;69922;45.656;25.586;2023-05-10T00:29:36;95697.65;;;5.57;73.22
80568;BME280;69922;45.656;25.586;2023-05-10T00:30:43;95693.98;;;5.56;73.15
80568;BME280;69922;45.656;25.586;2023-05-10T00:31:49;95693.67;;;5.55;73.02
80568;BME280;69922;45.656;25.586;2023-05-10T00:32:56;95697.30;;;5.54;73.42
80568;BME280;69922;45.656;25.586;2023-05-10T00:34:02;95693.79;;;5.53;73.42
80568;BME280;69922;45.656;25.586;2023-05-10T00:35:09;95695.14;;;5.52;73.31
80568;BME280;69922;45.656;25.586;2023-05-10T00:36:16;95696.94;;;5.50;73.53
80568;BME280;69922;45.656;25.586;2023-05-10T00:37:22;95696.79;;;5.49;73.30
80568;BME280;69922;45.656;25.586;2023-05-10T00:38:28;95697.27;;;5.49;73.27
80568;BME280;69922;45.656;25.586;2023-05-10T00:39:34;95697.48;;;5.49;73.38
80568;BME280;69922;45.656;25.586;2023-05-10T00:40:40;95699.38;;;5.51;73.66
80568;BME280;69922;45.656;25.586;2023-05-10T00:41:47;95696.23;;;5.51;73.66
80568;BME280;69922;45.656;25.586;2023-05-10T00:42:53;95696.70;;;5.51;73.81
80568;BME280;69922;45.656;25.586;2023-05-10T00:43:59;95693.79;;;5.51;73.63
80568;BME280;69922;45.656;25.586;2023-05-10T00:45:08;95693.52;;;5.50;73.63
80568;BME280;69922;45.656;25.586;2023-05-10T00:46:15;95691.10;;;5.48;73.62
80568;BME280;69922;45.656;25.586;2023-05-10T00:47:22;95690.83;;;5.47;73.53
80568;BME280;69922;45.656;25.586;2023-05-10T00:48:29;95692.13;;;5.46;73.59
80568;BME280;69922;45.656;25.586;2023-05-10T00:49:36;95693.89;;;5.44;73.92
80568;BME280;69922;45.656;25.586;2023-05-10T00:50:42;95690.09;;;5.42;74.10
80568;BME280;69922;45.656;25.586;2023-05-10T00:51:48;95694.98;;;5.40;73.85
80568;BME280;69922;45.656;25.586;2023-05-10T00:52:55;95694.73;;;5.38;73.78
80568;BME280;69922;45.656;25.586;2023-05-10T00:54:01;95693.70;;;5.36;73.93
80568;BME280;69922;45.656;25.586;2023-05-10T00:55:09;95689.98;;;5.36;73.75
80568;BME280;69922;45.656;25.586;2023-05-10T00:56:17;95692.20;;;5.35;73.78
80568;BME280;69922;45.656;25.586;2023-05-10T00:57:23;95692.15;;;5.34;73.85
80568;BME280;69922;45.656;25.586;2023-05-10T00:58:30;95689.27;;;5.33;73.87
80568;BME280;69922;45.656;25.586;2023-05-10T00:59:36;95690.03;;;5.33;74.01
80568;BME280;69922;45.656;25.586;2023-05-10T01:00:43;95690.74;;;5.32;73.93
80568;BME280;69922;45.656;25.586;2023-05-10T01:01:52;95693.57;;;5.30;74.16
80568;BME280;69922;45.656;25.586;2023-05-10T01:02:58;95694.06;;;5.29;74.00
80568;BME280;69922;45.656;25.586;2023-05-10T01:04:05;95694.40;;;5.26;74.16
80568;BME280;69922;45.656;25.586;2023-05-10T01:05:12;95690.94;;;5.23;74.21
80568;BME280;69922;45.656;25.586;2023-05-10T01:06:18;95693.18;;;5.20;74.37
80568;BME280;69922;45.656;25.586;2023-05-10T01:07:25;95692.29;;;5.16;74.63
80568;BME280;69922;45.656;25.586;2023-05-10T01:08:31;95690.34;;;5.11;74.68
80568;BME280;69922;45.656;25.586;2023-05-10T01:09:37;95687.77;;;5.08;74.77
80568;BME280;69922;45.656;25.586;2023-05-10T01:10:44;95686.15;;;5.04;74.73
80568;BME280;69922;45.656;25.586;2023-05-10T01:11:51;95684.64;;;5.01;75.23
80568;BME280;69922;45.656;25.586;2023-05-10T01:12:57;95684.23;;;4.99;74.98
80568;BME280;69922;45.656;25.586;2023-05-10T01:14:06;95681.91;;;4.96;75.32
80568;BME280;69922;45.656;25.586;2023-05-10T01:15:13;95679.04;;;4.93;75.53
80568;BME280;69922;45.656;25.586;2023-05-10T01:16:20;95676.14;;;4.89;75.81
80568;BME280;69922;45.656;25.586;2023-05-10T01:17:27;95679.34;;;4.86;75.63
80568;BME280;69922;45.656;25.586;2023-05-10T01:18:35;95676.58;;;4.82;75.86
80568;BME280;69922;45.656;25.586;2023-05-10T01:19:42;95676.81;;;4.79;75.80
80568;BME280;69922;45.656;25.586;2023-05-10T01:20:53;95679.36;;;4.76;76.15
80568;BME280;69922;45.656;25.586;2023-05-10T01:22:09;95679.10;;;4.73;75.98
80568;BME280;69922;45.656;25.586;2023-05-10T01:23:35;95677.27;;;4.69;76.26
80568;BME280;69922;45.656;25.586;2023-05-10T01:25:11;95675.50;;;4.66;76.22
80568;BME280;69922;45.656;25.586;2023-05-10T01:26:39;95676.74;;;4.63;76.34
80568;BME280;69922;45.656;25.586;2023-05-10T01:28:15;95674.97;;;4.60;76.35
80568;BME280;69922;45.656;25.586;2023-05-10T01:29:59;95672.92;;;4.58;76.31
80568;BME280;69922;45.656;25.586;2023-05-10T01:31:57;95672.38;;;4.54;76.32
80568;BME280;69922;45.656;25.586;2023-05-10T01:33:11;95674.16;;;4.50;76.40
80568;BME280;69922;45.656;25.586;2023-05-10T01:34:25;95671.42;;;4.47;76.59
80568;BME280;69922;45.656;25.586;2023-05-10T01:35:40;95673.15;;;4.44;76.72
80568;BME280;69922;45.656;25.586;2023-05-10T01:36:54;95669.75;;;4.41;76.59
80568;BME280;69922;45.656;25.586;2023-05-10T01:38:07;95671.23;;;4.39;76.77
80568;BME280;69922;45.656;25.586;2023-05-10T01:39:20;95671.38;;;4.36;77.01
80568;BME280;69922;45.656;25.586;2023-05-10T01:40:35;95676.30;;;4.35;76.72
80568;BME280;69922;45.656;25.586;2023-05-10T01:41:50;95671.92;;;4.33;77.15
80568;BME280;69922;45.656;25.586;2023-05-10T01:43:01;95669.50;;;4.32;77.29
80568;BME280;69922;45.656;25.586;2023-05-10T01:44:17;95670.74;;;4.31;77.05
80568;BME280;69922;45.656;25.586;2023-05-10T01:45:28;95668.09;;;4.31;77.26
80568;BME280;69922;45.656;25.586;2023-05-10T01:46:37;95667.88;;;4.31;77.34
80568;BME280;69922;45.656;25.586;2023-05-10T01:47:46;95663.50;;;4.30;77.39
80568;BME280;69922;45.656;25.586;2023-05-10T01:48:57;95663.88;;;4.29;77.47
80568;BME280;69922;45.656;25.586;2023-05-10T01:50:08;95665.94;;;4.28;77.26
80568;BME280;69922;45.656;25.586;2023-05-10T01:51:19;95663.83;;;4.26;77.47
80568;BME280;69922;45.656;25.586;2023-05-10T01:52:33;95664.48;;;4.26;77.60
80568;BME280;69922;45.656;25.586;2023-05-10T01:53:41;95662.80;;;4.25;77.83
80568;BME280;69922;45.656;25.586;2023-05-10T01:54:53;95665.93;;;4.23;77.65
80568;BME280;69922;45.656;25.586;2023-05-10T01:56:01;95662.52;;;4.22;77.91
80568;BME280;69922;45.656;25.586;2023-05-10T01:57:10;95664.80;;;4.23;77.67
80568;BME280;69922;45.656;25.586;2023-05-10T01:58:23;95664.11;;;4.25;77.62
80568;BME280;69922;45.656;25.586;2023-05-10T01:59:33;95662.36;;;4.26;77.92
80568;BME280;69922;45.656;25.586;2023-05-10T02:00:44;95662.20;;;4.28;77.72
80568;BME280;69922;45.656;25.586;2023-05-10T02:01:49;95660.30;;;4.31;77.40
80568;BME280;69922;45.656;25.586;2023-05-10T02:02:57;95664.63;;;4.32;77.72
80568;BME280;69922;45.656;25.586;2023-05-10T02:04:06;95663.76;;;4.33;77.32
80568;BME280;69922;45.656;25.586;2023-05-10T02:05:14;95659.98;;;4.34;77.68
80568;BME280;69922;45.656;25.586;2023-05-10T02:06:22;95655.05;;;4.35;77.29
80568;BME280;69922;45.656;25.586;2023-05-10T02:07:35;95656.90;;;4.36;77.33
80568;BME280;69922;45.656;25.586;2023-05-10T02:08:42;95660.52;;;4.37;77.05
80568;BME280;69922;45.656;25.586;2023-05-10T02:09:49;95653.23;;;4.36;77.44
80568;BME280;69922;45.656;25.586;2023-05-10T02:10:57;95656.89;;;4.38;77.14
80568;BME280;69922;45.656;25.586;2023-05-10T02:12:06;95654.08;;;4.37;77.30
80568;BME280;69922;45.656;25.586;2023-05-10T02:13:15;95657.60;;;4.37;76.88
80568;BME280;69922;45.656;25.586;2023-05-10T02:14:22;95654.58;;;4.37;77.02
80568;BME280;69922;45.656;25.586;2023-05-10T02:15:31;95656.14;;;4.37;77.20
80568;BME280;69922;45.656;25.586;2023-05-10T02:16:39;95649.86;;;4.38;76.97
80568;BME280;69922;45.656;25.586;2023-05-10T02:17:47;95651.76;;;4.38;77.12
80568;BME280;69922;45.656;25.586;2023-05-10T02:18:55;95651.59;;;4.38;77.05
80568;BME280;69922;45.656;25.586;2023-05-10T02:20:03;95649.80;;;4.38;77.05
80568;BME280;69922;45.656;25.586;2023-05-10T02:21:10;95649.59;;;4.37;77.30
80568;BME280;69922;45.656;25.586;2023-05-10T02:22:16;95650.09;;;4.36;77.23
80568;BME280;69922;45.656;25.586;2023-05-10T02:23:24;95653.70;;;4.35;77.02
80568;BME280;69922;45.656;25.586;2023-05-10T02:24:33;95653.64;;;4.34;77.09
80568;BME280;69922;45.656;25.586;2023-05-10T02:25:41;95652.95;;;4.34;76.75
80568;BME280;69922;45.656;25.586;2023-05-10T02:26:49;95652.63;;;4.34;76.73
80568;BME280;69922;45.656;25.586;2023-05-10T02:27:58;95652.58;;;4.34;76.85
80568;BME280;69922;45.656;25.586;2023-05-10T02:29:07;95652.24;;;4.35;76.88
80568;BME280;69922;45.656;25.586;2023-05-10T02:30:15;95651.86;;;4.37;76.65
80568;BME280;69922;45.656;25.586;2023-05-10T02:31:22;95650.99;;;4.38;76.60
80568;BME280;69922;45.656;25.586;2023-05-10T02:32:30;95652.23;;;4.41;76.58
80568;BME280;69922;45.656;25.586;2023-05-10T02:33:38;95653.80;;;4.43;76.79
80568;BME280;69922;45.656;25.586;2023-05-10T02:34:47;95656.23;;;4.45;76.95
80568;BME280;69922;45.656;25.586;2023-05-10T02:35:58;95654.98;;;4.47;76.48
80568;BME280;69922;45.656;25.586;2023-05-10T02:37:05;95652.16;;;4.49;76.32
80568;BME280;69922;45.656;25.586;2023-05-10T02:38:12;95652.05;;;4.49;76.26
80568;BME280;69922;45.656;25.586;2023-05-10T02:39:20;95652.33;;;4.49;76.33
80568;BME280;69922;45.656;25.586;2023-05-10T02:40:27;95651.08;;;4.49;76.24
80568;BME280;69922;45.656;25.586;2023-05-10T02:41:34;95646.39;;;4.48;76.49
80568;BME280;69922;45.656;25.586;2023-05-10T02:42:43;95651.95;;;4.48;76.61
80568;BME280;69922;45.656;25.586;2023-05-10T02:43:50;95655.47;;;4.48;76.15
80568;BME280;69922;45.656;25.586;2023-05-10T02:45:01;95654.70;;;4.50;76.50
80568;BME280;69922;45.656;25.586;2023-05-10T02:46:08;95652.54;;;4.51;75.98
80568;BME280;69922;45.656;25.586;2023-05-10T02:47:14;95654.30;;;4.53;76.25
80568;BME280;69922;45.656;25.586;2023-05-10T02:48:21;95655.17;;;4.54;76.20
80568;BME280;69922;45.656;25.586;2023-05-10T02:49:27;95654.84;;;4.56;75.99
80568;BME280;69922;45.656;25.586;2023-05-10T02:50:34;95654.41;;;4.56;76.17
80568;BME280;69922;45.656;25.586;2023-05-10T02:51:43;95655.55;;;4.56;75.91
80568;BME280;69922;45.656;25.586;2023-05-10T02:52:54;95654.31;;;4.56;75.79
80568;BME280;69922;45.656;25.586;2023-05-10T02:54:06;95655.50;;;4.56;75.92
80568;BME280;69922;45.656;25.586;2023-05-10T02:55:16;95654.96;;;4.56;76.03
80568;BME280;69922;45.656;25.586;2023-05-10T02:56:34;95652.04;;;4.55;75.97
80568;BME280;69922;45.656;25.586;2023-05-10T02:57:43;95653.19;;;4.54;75.92
80568;BME280;69922;45.656;25.586;2023-05-10T02:58:52;95654.58;;;4.53;76.24
80568;BME280;69922;45.656;25.586;2023-05-10T02:59:59;95656.15;;;4.53;75.88
80568;BME280;69922;45.656;25.586;2023-05-10T03:01:06;95655.66;;;4.53;76.04
80568;BME280;69922;45.656;25.586;2023-05-10T03:02:14;95658.42;;;4.54;75.83
80568;BME280;69922;45.656;25.586;2023-05-10T03:03:21;95659.58;;;4.55;76.08
80568;BME280;69922;45.656;25.586;2023-05-10T03:04:28;95662.21;;;4.56;75.60
80568;BME280;69922;45.656;25.586;2023-05-10T03:05:35;95657.55;;;4.57;75.82
80568;BME280;69922;45.656;25.586;2023-05-10T03:06:41;95661.45;;;4.57;75.76
80568;BME280;69922;45.656;25.586;2023-05-10T03:07:50;95661.98;;;4.57;76.03
80568;BME280;69922;45.656;25.586;2023-05-10T03:08:55;95659.50;;;4.57;76.02
80568;BME280;69922;45.656;25.586;2023-05-10T03:10:03;95659.17;;;4.56;76.20
80568;BME280;69922;45.656;25.586;2023-05-10T03:11:21;95658.98;;;4.55;76.20
80568;BME280;69922;45.656;25.586;2023-05-10T03:12:37;95657.89;;;4.54;75.87
80568;BME280;69922;45.656;25.586;2023-05-10T03:13:56;95655.29;;;4.53;76.23
80568;BME280;69922;45.656;25.586;2023-05-10T03:15:13;95654.42;;;4.53;75.95
80568;BME280;69922;45.656;25.586;2023-05-10T03:16:27;95656.01;;;4.54;76.34
80568;BME280;69922;45.656;25.586;2023-05-10T03:17:44;95652.47;;;4.56;76.20
80568;BME280;69922;45.656;25.586;2023-05-10T03:18:56;95653.39;;;4.58;75.88
80568;BME280;69922;45.656;25.586;2023-05-10T03:20:10;95654.73;;;4.60;75.99
80568;BME280;69922;45.656;25.586;2023-05-10T03:21:24;95651.49;;;4.64;76.14
80568;BME280;69922;45.656;25.586;2023-05-10T03:22:34;95651.80;;;4.68;76.21
80568;BME280;69922;45.656;25.586;2023-05-10T03:23:45;95649.88;;;4.72;76.06
80568;BME280;69922;45.656;25.586;2023-05-10T03:24:55;95652.25;;;4.78;75.81
80568;BME280;69922;45.656;25.586;2023-05-10T03:26:04;95654.17;;;4.83;75.58
80568;BME280;69922;45.656;25.586;2023-05-10T03:27:11;95651.27;;;4.85;75.21
80568;BME280;69922;45.656;25.586;2023-05-10T03:28:20;95651.15;;;4.86;75.29
80568;BME280;69922;45.656;25.586;2023-05-10T03:29:27;95650.86;;;4.87;75.25
80568;BME280;69922;45.656;25.586;2023-05-10T03:30:35;95646.31;;;4.87;75.10
80568;BME280;69922;45.656;25.586;2023-05-10T03:31:41;95651.95;;;4.88;75.22
80568;BME280;69922;45.656;25.586;2023-05-10T03:32:48;95649.45;;;4.89;75.33
80568;BME280;69922;45.656;25.586;2023-05-10T03:33:54;95653.13;;;4.91;74.91
80568;BME280;69922;45.656;25.586;2023-05-10T03:35:00;95651.11;;;4.94;74.84
80568;BME280;69922;45.656;25.586;2023-05-10T03:36:08;95652.13;;;4.98;74.91
80568;BME280;69922;45.656;25.586;2023-05-10T03:37:15;95650.70;;;5.00;74.90
80568;BME280;69922;45.656;25.586;2023-05-10T03:38:21;95653.35;;;5.04;74.94
80568;BME280;69922;45.656;25.586;2023-05-10T03:39:27;95651.45;;;5.06;74.76
80568;BME280;69922;45.656;25.586;2023-05-10T03:40:34;95652.89;;;5.09;74.49
80568;BME280;69922;45.656;25.586;2023-05-10T03:41:40;95650.92;;;5.12;74.66
80568;BME280;69922;45.656;25.586;2023-05-10T03:42:47;95650.16;;;5.15;74.48
80568;BME280;69922;45.656;25.586;2023-05-10T03:43:53;95653.02;;;5.18;74.26
80568;BME280;69922;45.656;25.586;2023-05-10T03:44:59;95653.33;;;5.20;74.35
80568;BME280;69922;45.656;25.586;2023-05-10T03:46:05;95651.42;;;5.24;74.32
80568;BME280;69922;45.656;25.586;2023-05-10T03:47:12;95654.60;;;5.27;74.00
80568;BME280;69922;45.656;25.586;2023-05-10T03:48:19;95651.00;;;5.30;74.16
80568;BME280;69922;45.656;25.586;2023-05-10T03:49:25;95647.68;;;5.33;73.74
80568;BME280;69922;45.656;25.586;2023-05-10T03:50:31;95649.88;;;5.37;73.60
80568;BME280;69922;45.656;25.586;2023-05-10T03:51:37;95648.18;;;5.41;73.69
80568;BME280;69922;45.656;25.586;2023-05-10T03:52:43;95651.41;;;5.45;73.74
80568;BME280;69922;45.656;25.586;2023-05-10T03:53:50;95649.20;;;5.52;73.56
80568;BME280;69922;45.656;25.586;2023-05-10T03:54:56;95645.92;;;5.57;73.55
80568;BME280;69922;45.656;25.586;2023-05-10T03:56:03;95648.70;;;5.63;73.84
80568;BME280;69922;45.656;25.586;2023-05-10T03:57:09;95643.35;;;5.68;73.87
80568;BME280;69922;45.656;25.586;2023-05-10T03:58:15;95642.89;;;5.72;73.34
80568;BME280;69922;45.656;25.586;2023-05-10T03:59:21;95644.50;;;5.76;73.04
80568;BME280;69922;45.656;25.586;2023-05-10T04:00:27;95645.34;;;5.78;72.99
80568;BME280;69922;45.656;25.586;2023-05-10T04:01:33;95643.00;;;5.79;72.91
80568;BME280;69922;45.656;25.586;2023-05-10T04:02:40;95645.06;;;5.80;72.85
80568;BME280;69922;45.656;25.586;2023-05-10T04:03:46;95646.29;;;5.80;72.93
80568;BME280;69922;45.656;25.586;2023-05-10T04:04:52;95642.52;;;5.80;72.89
80568;BME280;69922;45.656;25.586;2023-05-10T04:06:02;95641.91;;;5.82;73.07
80568;BME280;69922;45.656;25.586;2023-05-10T04:07:08;95640.08;;;5.84;72.77
80568;BME280;69922;45.656;25.586;2023-05-10T04:08:16;95640.99;;;5.86;72.79
80568;BME280;69922;45.656;25.586;2023-05-10T04:09:23;95640.36;;;5.89;72.75
80568;BME280;69922;45.656;25.586;2023-05-10T04:10:28;95641.11;;;5.91;72.83
80568;BME280;69922;45.656;25.586;2023-05-10T04:11:35;95642.08;;;5.92;72.91
80568;BME280;69922;45.656;25.586;2023-05-10T04:12:41;95647.86;;;5.94;72.74
80568;BME280;69922;45.656;25.586;2023-05-10T04:13:48;95642.92;;;5.95;72.71
80568;BME280;69922;45.656;25.586;2023-05-10T04:14:54;95646.13;;;5.94;72.59
80568;BME280;69922;45.656;25.586;2023-05-10T04:16:00;95644.39;;;5.94;72.71
80568;BME280;69922;45.656;25.586;2023-05-10T04:17:07;95646.57;;;5.92;72.60
80568;BME280;69922;45.656;25.586;2023-05-10T04:18:13;95643.71;;;5.91;72.43
80568;BME280;69922;45.656;25.586;2023-05-10T04:19:19;95644.38;;;5.89;72.29
80568;BME280;69922;45.656;25.586;2023-05-10T04:20:26;95645.54;;;5.86;72.30
80568;BME280;69922;45.656;25.586;2023-05-10T04:21:32;95649.61;;;5.82;72.43
80568;BME280;69922;45.656;25.586;2023-05-10T04:22:38;95649.63;;;5.78;72.39
80568;BME280;69922;45.656;25.586;2023-05-10T04:23:44;95650.63;;;5.74;72.39
80568;BME280;69922;45.656;25.586;2023-05-10T04:24:50;95650.05;;;5.72;72.59
80568;BME280;69922;45.656;25.586;2023-05-10T04:26:01;95652.21;;;5.71;72.56
80568;BME280;69922;45.656;25.586;2023-05-10T04:27:08;95651.20;;;5.69;72.50
80568;BME280;69922;45.656;25.586;2023-05-10T04:28:14;95653.37;;;5.70;72.77
80568;BME280;69922;45.656;25.586;2023-05-10T04:29:20;95652.49;;;5.70;72.64
80568;BME280;69922;45.656;25.586;2023-05-10T04:30:26;95651.30;;;5.70;72.75
80568;BME280;69922;45.656;25.586;2023-05-10T04:31:34;95653.56;;;5.72;72.89
80568;BME280;69922;45.656;25.586;2023-05-10T04:32:43;95651.55;;;5.72;72.82
80568;BME280;69922;45.656;25.586;2023-05-10T04:33:49;95653.82;;;5.76;72.80
80568;BME280;69922;45.656;25.586;2023-05-10T04:34:56;95652.33;;;5.81;72.70
80568;BME280;69922;45.656;25.586;2023-05-10T04:36:02;95654.33;;;5.85;72.55
80568;BME280;69922;45.656;25.586;2023-05-10T04:37:09;95659.48;;;5.89;72.54
80568;BME280;69922;45.656;25.586;2023-05-10T04:38:17;95654.27;;;5.93;72.40
80568;BME280;69922;45.656;25.586;2023-05-10T04:39:23;95655.22;;;5.97;72.37
80568;BME280;69922;45.656;25.586;2023-05-10T04:40:29;95657.23;;;6.02;72.47
80568;BME280;69922;45.656;25.586;2023-05-10T04:41:35;95654.21;;;6.07;72.15
80568;BME280;69922;45.656;25.586;2023-05-10T04:42:43;95656.05;;;6.14;72.11
80568;BME280;69922;45.656;25.586;2023-05-10T04:43:49;95657.91;;;6.20;71.82
80568;BME280;69922;45.656;25.586;2023-05-10T04:44:55;95660.39;;;6.27;71.70
80568;BME280;69922;45.656;25.586;2023-05-10T04:46:02;95657.72;;;6.35;71.65
80568;BME280;69922;45.656;25.586;2023-05-10T04:47:08;95656.45;;;6.43;71.55
80568;BME280;69922;45.656;25.586;2023-05-10T04:48:17;95659.28;;;6.53;71.35
80568;BME280;69922;45.656;25.586;2023-05-10T04:49:23;95656.48;;;6.62;71.14
80568;BME280;69922;45.656;25.586;2023-05-10T04:50:29;95659.15;;;6.71;71.04
80568;BME280;69922;45.656;25.586;2023-05-10T04:51:35;95658.79;;;6.80;70.77
80568;BME280;69922;45.656;25.586;2023-05-10T04:52:41;95659.01;;;6.89;70.77
80568;BME280;69922;45.656;25.586;2023-05-10T04:53:48;95656.86;;;6.97;70.79
80568;BME280;69922;45.656;25.586;2023-05-10T04:55:10;95655.26;;;7.04;70.60
80568;BME280;69922;45.656;25.586;2023-05-10T04:56:17;95655.95;;;7.10;70.52
80568;BME280;69922;45.656;25.586;2023-05-10T04:57:23;95655.15;;;7.13;69.94
80568;BME280;69922;45.656;25.586;2023-05-10T04:58:29;95654.29;;;7.13;70.07
80568;BME280;69922;45.656;25.586;2023-05-10T04:59:37;95657.45;;;7.13;70.05
80568;BME280;69922;45.656;25.586;2023-05-10T05:00:44;95656.23;;;7.09;70.15
80568;BME280;69922;45.656;25.586;2023-05-10T05:01:49;95659.68;;;7.07;70.38
80568;BME280;69922;45.656;25.586;2023-05-10T05:02:55;95659.95;;;7.06;70.33
80568;BME280;69922;45.656;25.586;2023-05-10T05:04:02;95659.47;;;7.06;70.32
80568;BME280;69922;45.656;25.586;2023-05-10T05:05:09;95653.11;;;7.06;70.32
80568;BME280;69922;45.656;25.586;2023-05-10T05:06:15;95655.73;;;7.05;69.44
80568;BME280;69922;45.656;25.586;2023-05-10T05:07:21;95655.65;;;7.03;69.21
80568;BME280;69922;45.656;25.586;2023-05-10T05:08:28;95652.03;;;7.00;69.29
80568;BME280;69922;45.656;25.586;2023-05-10T05:09:34;95653.55;;;6.97;69.14
80568;BME280;69922;45.656;25.586;2023-05-10T05:10:40;95653.46;;;6.94;69.13
80568;BME280;69922;45.656;25.586;2023-05-10T05:11:46;95652.79;;;6.97;69.21
80568;BME280;69922;45.656;25.586;2023-05-10T05:12:52;95651.83;;;6.99;68.77
80568;BME280;69922;45.656;25.586;2023-05-10T05:14:00;95650.67;;;7.01;68.72
80568;BME280;69922;45.656;25.586;2023-05-10T05:15:08;95649.91;;;7.02;68.87
80568;BME280;69922;45.656;25.586;2023-05-10T05:16:16;95651.33;;;7.06;68.96
80568;BME280;69922;45.656;25.586;2023-05-10T05:17:22;95651.40;;;7.09;68.50
80568;BME280;69922;45.656;25.586;2023-05-10T05:18:28;95649.73;;;7.12;68.58
80568;BME280;69922;45.656;25.586;2023-05-10T05:19:35;95652.00;;;7.17;68.55
80568;BME280;69922;45.656;25.586;2023-05-10T05:20:42;95650.85;;;7.22;68.13
80568;BME280;69922;45.656;25.586;2023-05-10T05:21:47;95650.23;;;7.24;67.88
80568;BME280;69922;45.656;25.586;2023-05-10T05:22:53;95648.34;;;7.28;68.01
80568;BME280;69922;45.656;25.586;2023-05-10T05:23:59;95647.57;;;7.32;68.07
80568;BME280;69922;45.656;25.586;2023-05-10T05:25:08;95649.59;;;7.36;68.12
80568;BME280;69922;45.656;25.586;2023-05-10T05:26:15;95649.61;;;7.41;68.02
80568;BME280;69922;45.656;25.586;2023-05-10T05:27:21;95651.16;;;7.45;67.68
80568;BME280;69922;45.656;25.586;2023-05-10T05:28:30;95647.14;;;7.49;67.67
80568;BME280;69922;45.656;25.586;2023-05-10T05:29:40;95649.55;;;7.51;67.55
80568;BME280;69922;45.656;25.586;2023-05-10T05:30:47;95648.02;;;7.53;67.24
80568;BME280;69922;45.656;25.586;2023-05-10T05:31:53;95642.29;;;7.53;67.25
80568;BME280;69922;45.656;25.586;2023-05-10T05:33:00;95645.80;;;7.52;67.29
80568;BME280;69922;45.656;25.586;2023-05-10T05:34:06;95646.16;;;7.52;67.34
80568;BME280;69922;45.656;25.586;2023-05-10T05:35:13;95645.04;;;7.55;67.70
80568;BME280;69922;45.656;25.586;2023-05-10T05:36:19;95644.56;;;7.58;67.51
80568;BME280;69922;45.656;25.586;2023-05-10T05:37:25;95641.20;;;7.62;67.34
80568;BME280;69922;45.656;25.586;2023-05-10T05:38:38;95642.63;;;7.65;67.60
80568;BME280;69922;45.656;25.586;2023-05-10T05:39:44;95640.71;;;7.69;67.22
80568;BME280;69922;45.656;25.586;2023-05-10T05:40:50;95642.72;;;7.73;67.30
80568;BME280;69922;45.656;25.586;2023-05-10T05:41:56;95641.02;;;7.78;67.59
80568;BME280;69922;45.656;25.586;2023-05-10T05:43:03;95643.45;;;7.86;67.42
80568;BME280;69922;45.656;25.586;2023-05-10T05:44:09;95645.21;;;7.91;67.08
80568;BME280;69922;45.656;25.586;2023-05-10T05:45:16;95643.05;;;7.94;66.58
80568;BME280;69922;45.656;25.586;2023-05-10T05:46:23;95642.86;;;7.92;66.14
80568;BME280;69922;45.656;25.586;2023-05-10T05:47:29;95640.73;;;7.93;66.28
80568;BME280;69922;45.656;25.586;2023-05-10T05:48:35;95645.08;;;7.93;66.22
80568;BME280;69922;45.656;25.586;2023-05-10T05:49:41;95643.02;;;7.92;66.43
80568;BME280;69922;45.656;25.586;2023-05-10T05:50:47;95643.60;;;7.94;66.38
80568;BME280;69922;45.656;25.586;2023-05-10T05:51:54;95645.55;;;7.94;66.37
80568;BME280;69922;45.656;25.586;2023-05-10T05:53:00;95643.08;;;7.96;66.79
80568;BME280;69922;45.656;25.586;2023-05-10T05:54:07;95643.63;;;7.99;66.59
80568;BME280;69922;45.656;25.586;2023-05-10T05:55:14;95641.33;;;8.00;67.08
80568;BME280;69922;45.656;25.586;2023-05-10T05:56:21;95645.70;;;8.05;66.96
80568;BME280;69922;45.656;25.586;2023-05-10T05:57:29;95642.34;;;8.11;66.98
80568;BME280;69922;45.656;25.586;2023-05-10T05:58:34;95646.64;;;8.14;66.47
80568;BME280;69922;45.656;25.586;2023-05-10T05:59:41;95644.90;;;8.18;66.75
80568;BME280;69922;45.656;25.586;2023-05-10T06:00:50;95643.11;;;8.21;66.12
80568;BME280;69922;45.656;25.586;2023-05-10T06:01:57;95644.33;;;8.25;66.58